sensor_id;sensor_type;location;lat;lon;timestamp;temperature;humidity
28484;DHT22;15704;48.834;8.736;2023-02-15T00:01:57;1.10;99.90
28484;DHT22;15704;48.834;8.736;2023-02-15T00:04:25;1.00;99.90
28484;DHT22;15704;48.834;8.736;2023-02-15T00:07:13;1.10;99.90
28484;DHT22;15704;48.834;8.736;2023-02-15T00:09:40;1.20;99.90
28484;DHT22;15704;48.834;8.736;2023-02-15T00:12:09;1.10;99.90
28484;DHT22;15704;48.834;8.736;2023-02-15T00:14:36;1.10;99.90
28484;DHT22;15704;48.834;8.736;2023-02-15T00:17:03;1.20;99.90
28484;DHT22;15704;48.834;8.736;2023-02-15T00:19:30;1.20;99.90
28484;DHT22;15704;48.834;8.736;2023-02-15T00:21:57;1.20;99.90
28484;DHT22;15704;48.834;8.736;2023-02-15T00:24:32;1.30;99.90
28484;DHT22;15704;48.834;8.736;2023-02-15T00:26:59;1.40;99.90
28484;DHT22;15704;48.834;8.736;2023-02-15T00:29:26;1.40;99.90
28484;DHT22;15704;48.834;8.736;2023-02-15T00:31:52;1.40;99.90
28484;DHT22;15704;48.834;8.736;2023-02-15T00:34:25;1.40;99.90
28484;DHT22;15704;48.834;8.736;2023-02-15T00:36:52;1.40;99.90
28484;DHT22;15704;48.834;8.736;2023-02-15T00:39:19;1.40;99.90
28484;DHT22;15704;48.834;8.736;2023-02-15T00:41:46;1.30;99.90
28484;DHT22;15704;48.834;8.736;2023-02-15T00:44:14;1.30;99.90
28484;DHT22;15704;48.834;8.736;2023-02-15T00:46:41;1.20;99.90
28484;DHT22;15704;48.834;8.736;2023-02-15T00:49:08;1.10;99.90
28484;DHT22;15704;48.834;8.736;2023-02-15T00:51:35;1.00;99.90
28484;DHT22;15704;48.834;8.736;2023-02-15T00:54:01;1.00;99.90
28484;DHT22;15704;48.834;8.736;2023-02-15T00:56:28;0.90;99.90
28484;DHT22;15704;48.834;8.736;2023-02-15T00:58:55;0.90;99.90
28484;DHT22;15704;48.834;8.736;2023-02-15T01:01:22;0.80;99.90
28484;DHT22;15704;48.834;8.736;2023-02-15T01:03:49;0.80;99.90
28484;DHT22;15704;48.834;8.736;2023-02-15T01:06:17;0.80;99.90
28484;DHT22;15704;48.834;8.736;2023-02-15T01:08:46;0.80;99.90
28484;DHT22;15704;48.834;8.736;2023-02-15T01:11:16;0.70;99.90
28484;DHT22;15704;48.834;8.736;2023-02-15T01:13:53;0.70;99.90
28484;DHT22;15704;48.834;8.736;2023-02-15T01:16:21;0.70;99.90
28484;DHT22;15704;48.834;8.736;2023-02-15T01:18:49;0.70;99.90
28484;DHT22;15704;48.834;8.736;2023-02-15T01:21:18;0.60;99.90
28484;DHT22;15704;48.834;8.736;2023-02-15T01:23:46;0.60;99.90
28484;DHT22;15704;48.834;8.736;2023-02-15T01:26:14;0.60;99.90
28484;DHT22;15704;48.834;8.736;2023-02-15T01:28:55;0.50;99.90
28484;DHT22;15704;48.834;8.736;2023-02-15T01:31:23;0.50;99.90
28484;DHT22;15704;48.834;8.736;2023-02-15T01:33:50;0.50;99.90
28484;DHT22;15704;48.834;8.736;2023-02-15T01:36:17;0.50;99.90
28484;DHT22;15704;48.834;8.736;2023-02-15T01:38:44;0.50;99.90
28484;DHT22;15704;48.834;8.736;2023-02-15T01:41:11;0.40;99.90
28484;DHT22;15704;48.834;8.736;2023-02-15T01:44:00;0.40;99.90
28484;DHT22;15704;48.834;8.736;2023-02-15T01:46:35;0.40;99.90
28484;DHT22;15704;48.834;8.736;2023-02-15T01:49:10;0.30;99.90
28484;DHT22;15704;48.834;8.736;2023-02-15T01:51:38;0.30;99.90
28484;DHT22;15704;48.834;8.736;2023-02-15T01:56:41;0.30;99.90
28484;DHT22;15704;48.834;8.736;2023-02-15T01:59:11;0.30;99.90
28484;DHT22;15704;48.834;8.736;2023-02-15T02:01:51;0.30;99.90
28484;DHT22;15704;48.834;8.736;2023-02-15T02:04:33;0.20;99.90
28484;DHT22;15704;48.834;8.736;2023-02-15T02:07:08;0.20;99.90
28484;DHT22;15704;48.834;8.736;2023-02-15T02:09:45;0.20;99.90
28484;DHT22;15704;48.834;8.736;2023-02-15T02:12:12;0.10;99.90
28484;DHT22;15704;48.834;8.736;2023-02-15T02:14:40;0.10;99.90
28484;DHT22;15704;48.834;8.736;2023-02-15T02:17:16;0.10;99.90
28484;DHT22;15704;48.834;8.736;2023-02-15T02:20:10;0.10;99.90
28484;DHT22;15704;48.834;8.736;2023-02-15T02:34:21;-0.10;99.90
28484;DHT22;15704;48.834;8.736;2023-02-15T02:40:05;-0.10;99.90
28484;DHT22;15704;48.834;8.736;2023-02-15T02:42:48;-0.20;99.90
28484;DHT22;15704;48.834;8.736;2023-02-15T02:45:44;-0.20;99.90
28484;DHT22;15704;48.834;8.736;2023-02-15T02:48:17;-0.20;99.90
28484;DHT22;15704;48.834;8.736;2023-02-15T02:50:45;-0.20;99.90
28484;DHT22;15704;48.834;8.736;2023-02-15T02:53:11;-0.20;99.90
28484;DHT22;15704;48.834;8.736;2023-02-15T02:55:52;-0.20;99.90
28484;DHT22;15704;48.834;8.736;2023-02-15T02:59:08;-0.20;99.90
28484;DHT22;15704;48.834;8.736;2023-02-15T03:04:42;-0.20;99.90
28484;DHT22;15704;48.834;8.736;2023-02-15T03:07:20;-0.20;99.90
28484;DHT22;15704;48.834;8.736;2023-02-15T03:09:57;-0.20;99.90
28484;DHT22;15704;48.834;8.736;2023-02-15T03:12:28;-0.20;99.90
28484;DHT22;15704;48.834;8.736;2023-02-15T03:17:32;-0.20;99.90
28484;DHT22;15704;48.834;8.736;2023-02-15T03:20:19;-0.20;99.90
28484;DHT22;15704;48.834;8.736;2023-02-15T03:22:55;-0.20;99.90
28484;DHT22;15704;48.834;8.736;2023-02-15T03:25:44;-0.20;99.90
28484;DHT22;15704;48.834;8.736;2023-02-15T03:28:20;-0.20;99.90
28484;DHT22;15704;48.834;8.736;2023-02-15T03:30:52;-0.20;99.90
28484;DHT22;15704;48.834;8.736;2023-02-15T03:33:20;-0.10;99.90
28484;DHT22;15704;48.834;8.736;2023-02-15T03:38:20;-0.10;99.90
28484;DHT22;15704;48.834;8.736;2023-02-15T03:40:48;-0.10;99.90
28484;DHT22;15704;48.834;8.736;2023-02-15T03:43:53;0.00;99.90
28484;DHT22;15704;48.834;8.736;2023-02-15T03:49:43;-0.10;99.90
28484;DHT22;15704;48.834;8.736;2023-02-15T03:52:11;-0.10;99.90
28484;DHT22;15704;48.834;8.736;2023-02-15T03:54:42;-0.10;99.90
28484;DHT22;15704;48.834;8.736;2023-02-15T03:57:26;-0.10;99.90
28484;DHT22;15704;48.834;8.736;2023-02-15T04:00:22;-0.10;99.90
28484;DHT22;15704;48.834;8.736;2023-02-15T04:05:35;-0.10;99.90
28484;DHT22;15704;48.834;8.736;2023-02-15T04:08:02;0.00;99.90
28484;DHT22;15704;48.834;8.736;2023-02-15T04:10:29;0.00;99.90
28484;DHT22;15704;48.834;8.736;2023-02-15T04:13:30;0.10;99.90
28484;DHT22;15704;48.834;8.736;2023-02-15T04:16:00;0.20;99.90
28484;DHT22;15704;48.834;8.736;2023-02-15T04:18:42;0.20;99.90
28484;DHT22;15704;48.834;8.736;2023-02-15T04:21:30;0.20;99.90
28484;DHT22;15704;48.834;8.736;2023-02-15T04:24:16;0.30;99.90
28484;DHT22;15704;48.834;8.736;2023-02-15T04:27:02;0.30;99.90
28484;DHT22;15704;48.834;8.736;2023-02-15T04:29:30;0.30;99.90
28484;DHT22;15704;48.834;8.736;2023-02-15T04:31:59;0.40;99.90
28484;DHT22;15704;48.834;8.736;2023-02-15T04:34:26;0.50;99.90
28484;DHT22;15704;48.834;8.736;2023-02-15T04:36:53;0.40;99.90
28484;DHT22;15704;48.834;8.736;2023-02-15T04:39:19;0.30;99.90
28484;DHT22;15704;48.834;8.736;2023-02-15T04:41:46;0.20;99.90
28484;DHT22;15704;48.834;8.736;2023-02-15T04:44:14;0.20;99.90
28484;DHT22;15704;48.834;8.736;2023-02-15T04:46:41;0.20;99.90
28484;DHT22;15704;48.834;8.736;2023-02-15T04:49:08;0.10;99.90
28484;DHT22;15704;48.834;8.736;2023-02-15T04:51:36;0.10;99.90
28484;DHT22;15704;48.834;8.736;2023-02-15T04:54:03;0.00;99.90
28484;DHT22;15704;48.834;8.736;2023-02-15T04:56:29;-0.10;99.90
28484;DHT22;15704;48.834;8.736;2023-02-15T04:58:58;-0.10;99.90
28484;DHT22;15704;48.834;8.736;2023-02-15T05:01:24;-0.10;99.90
28484;DHT22;15704;48.834;8.736;2023-02-15T05:03:51;-0.20;99.90
28484;DHT22;15704;48.834;8.736;2023-02-15T05:06:18;-0.20;99.90
28484;DHT22;15704;48.834;8.736;2023-02-15T05:08:45;-0.20;99.90
28484;DHT22;15704;48.834;8.736;2023-02-15T05:11:12;-0.30;99.90
28484;DHT22;15704;48.834;8.736;2023-02-15T05:13:39;-0.30;99.90
28484;DHT22;15704;48.834;8.736;2023-02-15T05:16:06;-0.30;99.90
28484;DHT22;15704;48.834;8.736;2023-02-15T05:18:33;-0.30;99.90
28484;DHT22;15704;48.834;8.736;2023-02-15T05:21:00;-0.30;99.90
28484;DHT22;15704;48.834;8.736;2023-02-15T05:23:26;-0.30;99.90
28484;DHT22;15704;48.834;8.736;2023-02-15T05:25:53;-0.30;99.90
28484;DHT22;15704;48.834;8.736;2023-02-15T05:28:39;-0.30;99.90
28484;DHT22;15704;48.834;8.736;2023-02-15T05:31:11;-0.30;99.90
28484;DHT22;15704;48.834;8.736;2023-02-15T05:33:39;-0.30;99.90
28484;DHT22;15704;48.834;8.736;2023-02-15T05:36:09;-0.30;99.90
28484;DHT22;15704;48.834;8.736;2023-02-15T05:38:38;-0.30;99.90
28484;DHT22;15704;48.834;8.736;2023-02-15T05:41:07;-0.40;99.90
28484;DHT22;15704;48.834;8.736;2023-02-15T05:43:35;-0.40;99.90
28484;DHT22;15704;48.834;8.736;2023-02-15T05:46:03;-0.40;99.90
28484;DHT22;15704;48.834;8.736;2023-02-15T05:48:38;-0.40;99.90
28484;DHT22;15704;48.834;8.736;2023-02-15T05:51:11;-0.30;99.90
28484;DHT22;15704;48.834;8.736;2023-02-15T05:53:40;-0.30;99.90
28484;DHT22;15704;48.834;8.736;2023-02-15T05:56:09;-0.20;99.90
28484;DHT22;15704;48.834;8.736;2023-02-15T05:58:38;-0.30;99.90
28484;DHT22;15704;48.834;8.736;2023-02-15T06:01:17;-0.20;99.90
28484;DHT22;15704;48.834;8.736;2023-02-15T06:03:53;-0.20;99.90
28484;DHT22;15704;48.834;8.736;2023-02-15T06:06:20;-0.20;99.90
28484;DHT22;15704;48.834;8.736;2023-02-15T06:08:47;-0.20;99.90
28484;DHT22;15704;48.834;8.736;2023-02-15T06:11:23;-0.20;99.90
28484;DHT22;15704;48.834;8.736;2023-02-15T06:13:49;-0.20;99.90
28484;DHT22;15704;48.834;8.736;2023-02-15T06:16:43;-0.20;99.90
28484;DHT22;15704;48.834;8.736;2023-02-15T06:19:16;-0.30;99.90
28484;DHT22;15704;48.834;8.736;2023-02-15T06:21:44;-0.30;99.90
28484;DHT22;15704;48.834;8.736;2023-02-15T06:24:11;-0.30;99.90
28484;DHT22;15704;48.834;8.736;2023-02-15T06:26:37;-0.30;99.90
28484;DHT22;15704;48.834;8.736;2023-02-15T06:29:13;-0.40;99.90
28484;DHT22;15704;48.834;8.736;2023-02-15T06:31:42;-0.30;99.90
28484;DHT22;15704;48.834;8.736;2023-02-15T06:34:09;-0.40;99.90
28484;DHT22;15704;48.834;8.736;2023-02-15T06:36:36;-0.30;99.90
28484;DHT22;15704;48.834;8.736;2023-02-15T06:39:03;-0.30;99.90
28484;DHT22;15704;48.834;8.736;2023-02-15T06:41:36;-0.30;99.90
28484;DHT22;15704;48.834;8.736;2023-02-15T06:44:07;-0.30;99.90
28484;DHT22;15704;48.834;8.736;2023-02-15T06:46:34;-0.30;99.90
28484;DHT22;15704;48.834;8.736;2023-02-15T06:49:06;-0.30;99.90
28484;DHT22;15704;48.834;8.736;2023-02-15T06:51:33;-0.30;99.90
28484;DHT22;15704;48.834;8.736;2023-02-15T06:54:00;-0.30;99.90
28484;DHT22;15704;48.834;8.736;2023-02-15T06:56:30;-0.20;99.90
28484;DHT22;15704;48.834;8.736;2023-02-15T06:59:01;-0.20;99.90
28484;DHT22;15704;48.834;8.736;2023-02-15T07:01:30;-0.10;99.90
28484;DHT22;15704;48.834;8.736;2023-02-15T07:03:57;-0.10;99.90
28484;DHT22;15704;48.834;8.736;2023-02-15T07:06:23;0.00;99.90
28484;DHT22;15704;48.834;8.736;2023-02-15T07:08:50;0.00;99.90
28484;DHT22;15704;48.834;8.736;2023-02-15T07:11:17;0.10;99.90
28484;DHT22;15704;48.834;8.736;2023-02-15T07:14:02;0.30;99.90
28484;DHT22;15704;48.834;8.736;2023-02-15T07:16:32;0.40;99.90
28484;DHT22;15704;48.834;8.736;2023-02-15T07:19:01;0.60;99.90
28484;DHT22;15704;48.834;8.736;2023-02-15T07:21:28;0.70;99.90
28484;DHT22;15704;48.834;8.736;2023-02-15T07:23:58;0.70;99.90
28484;DHT22;15704;48.834;8.736;2023-02-15T07:26:25;0.80;99.90
28484;DHT22;15704;48.834;8.736;2023-02-15T07:28:55;0.90;99.90
28484;DHT22;15704;48.834;8.736;2023-02-15T07:31:26;1.10;99.90
28484;DHT22;15704;48.834;8.736;2023-02-15T07:33:52;1.20;99.90
28484;DHT22;15704;48.834;8.736;2023-02-15T07:36:19;1.30;99.90
28484;DHT22;15704;48.834;8.736;2023-02-15T07:38:46;1.40;99.90
28484;DHT22;15704;48.834;8.736;2023-02-15T07:44:13;1.60;99.90
28484;DHT22;15704;48.834;8.736;2023-02-15T07:46:40;1.70;99.90
28484;DHT22;15704;48.834;8.736;2023-02-15T07:49:19;1.80;99.90
28484;DHT22;15704;48.834;8.736;2023-02-15T07:51:50;1.90;99.90
28484;DHT22;15704;48.834;8.736;2023-02-15T07:54:16;2.00;99.90
28484;DHT22;15704;48.834;8.736;2023-02-15T07:56:43;2.00;99.90
28484;DHT22;15704;48.834;8.736;2023-02-15T07:59:10;2.10;99.90
28484;DHT22;15704;48.834;8.736;2023-02-15T08:01:41;2.00;99.90
28484;DHT22;15704;48.834;8.736;2023-02-15T08:04:13;2.00;99.90
28484;DHT22;15704;48.834;8.736;2023-02-15T08:06:40;1.90;99.90
28484;DHT22;15704;48.834;8.736;2023-02-15T08:09:11;1.70;99.90
28484;DHT22;15704;48.834;8.736;2023-02-15T08:11:40;1.60;99.90
28484;DHT22;15704;48.834;8.736;2023-02-15T08:14:17;1.60;99.90
28484;DHT22;15704;48.834;8.736;2023-02-15T08:16:45;1.70;99.90
28484;DHT22;15704;48.834;8.736;2023-02-15T08:22:01;1.60;99.90
28484;DHT22;15704;48.834;8.736;2023-02-15T08:24:32;1.60;99.90
28484;DHT22;15704;48.834;8.736;2023-02-15T08:27:00;1.80;99.90
28484;DHT22;15704;48.834;8.736;2023-02-15T08:29:33;1.90;99.90
28484;DHT22;15704;48.834;8.736;2023-02-15T08:32:07;2.00;99.90
28484;DHT22;15704;48.834;8.736;2023-02-15T08:34:38;2.20;99.90
28484;DHT22;15704;48.834;8.736;2023-02-15T08:37:10;2.40;99.90
28484;DHT22;15704;48.834;8.736;2023-02-15T08:39:46;2.60;99.90
28484;DHT22;15704;48.834;8.736;2023-02-15T08:42:16;2.70;99.90
28484;DHT22;15704;48.834;8.736;2023-02-15T08:44:42;2.90;99.90
28484;DHT22;15704;48.834;8.736;2023-02-15T08:47:09;3.00;99.90
28484;DHT22;15704;48.834;8.736;2023-02-15T08:49:51;3.10;99.90
28484;DHT22;15704;48.834;8.736;2023-02-15T08:52:17;3.30;99.90
28484;DHT22;15704;48.834;8.736;2023-02-15T08:55:07;3.50;99.90
28484;DHT22;15704;48.834;8.736;2023-02-15T08:57:36;3.30;99.90
28484;DHT22;15704;48.834;8.736;2023-02-15T09:00:11;3.30;99.90
28484;DHT22;15704;48.834;8.736;2023-02-15T09:02:38;3.30;99.90
28484;DHT22;15704;48.834;8.736;2023-02-15T09:05:10;3.30;99.90
28484;DHT22;15704;48.834;8.736;2023-02-15T09:07:36;3.40;99.90
28484;DHT22;15704;48.834;8.736;2023-02-15T09:10:03;3.40;99.90
28484;DHT22;15704;48.834;8.736;2023-02-15T09:12:30;3.40;99.90
28484;DHT22;15704;48.834;8.736;2023-02-15T09:14:57;3.50;99.90
28484;DHT22;15704;48.834;8.736;2023-02-15T09:17:26;3.70;99.90
28484;DHT22;15704;48.834;8.736;2023-02-15T09:20:11;3.80;99.90
28484;DHT22;15704;48.834;8.736;2023-02-15T09:22:48;3.90;99.90
28484;DHT22;15704;48.834;8.736;2023-02-15T09:25:15;4.00;99.90
28484;DHT22;15704;48.834;8.736;2023-02-15T09:27:47;3.90;99.90
28484;DHT22;15704;48.834;8.736;2023-02-15T09:30:21;4.00;99.90
28484;DHT22;15704;48.834;8.736;2023-02-15T09:32:48;4.10;99.90
28484;DHT22;15704;48.834;8.736;2023-02-15T09:35:15;4.20;99.90
28484;DHT22;15704;48.834;8.736;2023-02-15T09:37:55;4.40;99.90
28484;DHT22;15704;48.834;8.736;2023-02-15T09:40:27;4.50;99.90
28484;DHT22;15704;48.834;8.736;2023-02-15T09:46:40;4.90;99.90
28484;DHT22;15704;48.834;8.736;2023-02-15T09:55:05;5.10;99.90
28484;DHT22;15704;48.834;8.736;2023-02-15T10:00:53;5.40;99.90
28484;DHT22;15704;48.834;8.736;2023-02-15T10:09:29;5.90;99.90
28484;DHT22;15704;48.834;8.736;2023-02-15T10:20:49;6.60;99.90
28484;DHT22;15704;48.834;8.736;2023-02-15T10:23:54;6.90;99.90
28484;DHT22;15704;48.834;8.736;2023-02-15T10:26:29;7.00;99.90
28484;DHT22;15704;48.834;8.736;2023-02-15T10:32:25;7.20;99.90
28484;DHT22;15704;48.834;8.736;2023-02-15T10:49:05;7.60;99.90
28484;DHT22;15704;48.834;8.736;2023-02-15T10:54:23;7.90;99.90
28484;DHT22;15704;48.834;8.736;2023-02-15T11:02:56;7.70;99.90
28484;DHT22;15704;48.834;8.736;2023-02-15T11:08:15;7.90;99.90
28484;DHT22;15704;48.834;8.736;2023-02-15T11:10:57;8.00;99.90
28484;DHT22;15704;48.834;8.736;2023-02-15T11:13:27;8.10;99.90
28484;DHT22;15704;48.834;8.736;2023-02-15T11:16:02;8.20;99.90
28484;DHT22;15704;48.834;8.736;2023-02-15T11:18:32;8.40;99.90
28484;DHT22;15704;48.834;8.736;2023-02-15T11:23:46;8.50;99.90
28484;DHT22;15704;48.834;8.736;2023-02-15T11:26:37;8.10;99.90
28484;DHT22;15704;48.834;8.736;2023-02-15T11:31:54;7.60;99.90
28484;DHT22;15704;48.834;8.736;2023-02-15T11:34:37;7.40;99.90
28484;DHT22;15704;48.834;8.736;2023-02-15T11:37:11;7.30;99.90
28484;DHT22;15704;48.834;8.736;2023-02-15T11:39:40;7.10;99.90
28484;DHT22;15704;48.834;8.736;2023-02-15T11:42:19;7.10;99.90
28484;DHT22;15704;48.834;8.736;2023-02-15T11:45:17;7.20;99.90
28484;DHT22;15704;48.834;8.736;2023-02-15T11:47:48;7.40;99.90
28484;DHT22;15704;48.834;8.736;2023-02-15T11:50:18;7.50;99.90
28484;DHT22;15704;48.834;8.736;2023-02-15T11:52:52;7.70;99.90
28484;DHT22;15704;48.834;8.736;2023-02-15T11:55:22;7.90;99.90
28484;DHT22;15704;48.834;8.736;2023-02-15T12:01:21;8.00;99.90
28484;DHT22;15704;48.834;8.736;2023-02-15T12:03:52;8.10;99.90
28484;DHT22;15704;48.834;8.736;2023-02-15T12:06:22;8.20;99.90
28484;DHT22;15704;48.834;8.736;2023-02-15T12:11:51;8.50;99.90
28484;DHT22;15704;48.834;8.736;2023-02-15T12:14:18;8.80;99.90
28484;DHT22;15704;48.834;8.736;2023-02-15T12:16:48;9.00;99.90
28484;DHT22;15704;48.834;8.736;2023-02-15T12:19:37;9.20;99.90
28484;DHT22;15704;48.834;8.736;2023-02-15T12:22:25;9.30;99.90
28484;DHT22;15704;48.834;8.736;2023-02-15T12:25:04;9.50;99.90
28484;DHT22;15704;48.834;8.736;2023-02-15T12:27:46;9.60;99.90
28484;DHT22;15704;48.834;8.736;2023-02-15T12:30:20;9.70;99.90
28484;DHT22;15704;48.834;8.736;2023-02-15T12:32:54;9.80;99.90
28484;DHT22;15704;48.834;8.736;2023-02-15T12:35:29;9.80;99.90
28484;DHT22;15704;48.834;8.736;2023-02-15T12:40:30;9.80;99.90
28484;DHT22;15704;48.834;8.736;2023-02-15T12:42:57;9.80;99.90
28484;DHT22;15704;48.834;8.736;2023-02-15T12:45:32;9.70;99.90
28484;DHT22;15704;48.834;8.736;2023-02-15T12:50:45;9.80;99.90
28484;DHT22;15704;48.834;8.736;2023-02-15T12:53:14;9.80;99.90
28484;DHT22;15704;48.834;8.736;2023-02-15T12:55:59;9.80;99.90
28484;DHT22;15704;48.834;8.736;2023-02-15T12:58:28;9.80;99.90
28484;DHT22;15704;48.834;8.736;2023-02-15T13:03:38;10.00;99.90
28484;DHT22;15704;48.834;8.736;2023-02-15T13:06:19;10.10;99.90
28484;DHT22;15704;48.834;8.736;2023-02-15T13:08:51;10.10;99.90
28484;DHT22;15704;48.834;8.736;2023-02-15T13:11:30;10.20;99.90
28484;DHT22;15704;48.834;8.736;2023-02-15T13:16:44;10.30;99.90
28484;DHT22;15704;48.834;8.736;2023-02-15T13:19:20;10.40;99.90
28484;DHT22;15704;48.834;8.736;2023-02-15T13:21:52;10.50;99.90
28484;DHT22;15704;48.834;8.736;2023-02-15T13:24:41;10.40;99.90
28484;DHT22;15704;48.834;8.736;2023-02-15T13:27:13;10.50;99.90
28484;DHT22;15704;48.834;8.736;2023-02-15T13:29:45;10.60;99.90
28484;DHT22;15704;48.834;8.736;2023-02-15T13:34:56;10.60;99.90
28484;DHT22;15704;48.834;8.736;2023-02-15T13:37:45;10.60;99.90
28484;DHT22;15704;48.834;8.736;2023-02-15T13:40:21;10.60;99.90
28484;DHT22;15704;48.834;8.736;2023-02-15T13:52:22;10.80;99.90
28484;DHT22;15704;48.834;8.736;2023-02-15T14:21:59;10.10;99.90
28484;DHT22;15704;48.834;8.736;2023-02-15T14:24:38;10.00;99.90
28484;DHT22;15704;48.834;8.736;2023-02-15T14:30:48;10.00;99.90
28484;DHT22;15704;48.834;8.736;2023-02-15T14:36:07;10.00;99.90
28484;DHT22;15704;48.834;8.736;2023-02-15T14:41:48;9.80;99.90
28484;DHT22;15704;48.834;8.736;2023-02-15T14:44:45;9.80;99.90
28484;DHT22;15704;48.834;8.736;2023-02-15T14:47:44;9.70;99.90
28484;DHT22;15704;48.834;8.736;2023-02-15T14:58:38;9.50;99.90
28484;DHT22;15704;48.834;8.736;2023-02-15T15:01:32;9.40;99.90
28484;DHT22;15704;48.834;8.736;2023-02-15T15:04:03;9.30;99.90
28484;DHT22;15704;48.834;8.736;2023-02-15T15:06:36;9.30;99.90
28484;DHT22;15704;48.834;8.736;2023-02-15T15:09:42;9.20;99.90
28484;DHT22;15704;48.834;8.736;2023-02-15T15:14:50;9.10;99.90
28484;DHT22;15704;48.834;8.736;2023-02-15T15:34:07;8.60;99.90
28484;DHT22;15704;48.834;8.736;2023-02-15T15:36:59;8.50;99.90
28484;DHT22;15704;48.834;8.736;2023-02-15T15:47:40;8.40;99.90
28484;DHT22;15704;48.834;8.736;2023-02-15T15:50:19;8.40;99.90
28484;DHT22;15704;48.834;8.736;2023-02-15T15:52:57;8.30;99.90
28484;DHT22;15704;48.834;8.736;2023-02-15T15:55:28;8.30;99.90
28484;DHT22;15704;48.834;8.736;2023-02-15T15:57:59;8.20;99.90
28484;DHT22;15704;48.834;8.736;2023-02-15T16:00:34;8.20;99.90
28484;DHT22;15704;48.834;8.736;2023-02-15T16:03:01;8.10;99.90
28484;DHT22;15704;48.834;8.736;2023-02-15T16:05:35;8.00;99.90
28484;DHT22;15704;48.834;8.736;2023-02-15T16:08:02;7.90;99.90
28484;DHT22;15704;48.834;8.736;2023-02-15T16:10:30;7.80;99.90
28484;DHT22;15704;48.834;8.736;2023-02-15T16:12:59;7.70;99.90
28484;DHT22;15704;48.834;8.736;2023-02-15T16:18:18;7.40;99.90
28484;DHT22;15704;48.834;8.736;2023-02-15T16:20:53;7.30;99.90
28484;DHT22;15704;48.834;8.736;2023-02-15T16:28:49;6.80;99.90
28484;DHT22;15704;48.834;8.736;2023-02-15T16:31:16;6.70;99.90
28484;DHT22;15704;48.834;8.736;2023-02-15T16:33:44;6.60;99.90
28484;DHT22;15704;48.834;8.736;2023-02-15T16:36:26;6.50;99.90
28484;DHT22;15704;48.834;8.736;2023-02-15T16:41:27;6.20;99.90
28484;DHT22;15704;48.834;8.736;2023-02-15T16:43:58;6.10;99.90
28484;DHT22;15704;48.834;8.736;2023-02-15T16:46:31;6.00;99.90
28484;DHT22;15704;48.834;8.736;2023-02-15T16:49:38;5.90;99.90
28484;DHT22;15704;48.834;8.736;2023-02-15T16:52:32;5.70;99.90
28484;DHT22;15704;48.834;8.736;2023-02-15T16:55:02;5.60;99.90
28484;DHT22;15704;48.834;8.736;2023-02-15T16:57:36;5.50;99.90
28484;DHT22;15704;48.834;8.736;2023-02-15T17:00:07;5.40;99.90
28484;DHT22;15704;48.834;8.736;2023-02-15T17:03:39;5.30;99.90
28484;DHT22;15704;48.834;8.736;2023-02-15T17:05:44;5.20;99.90
28484;DHT22;15704;48.834;8.736;2023-02-15T17:11:03;5.10;99.90
28484;DHT22;15704;48.834;8.736;2023-02-15T17:13:31;5.00;99.90
28484;DHT22;15704;48.834;8.736;2023-02-15T17:18:33;4.90;99.90
28484;DHT22;15704;48.834;8.736;2023-02-15T17:21:17;4.90;99.90
28484;DHT22;15704;48.834;8.736;2023-02-15T17:23:47;4.80;99.90
28484;DHT22;15704;48.834;8.736;2023-02-15T17:26:29;4.80;99.90
28484;DHT22;15704;48.834;8.736;2023-02-15T17:28:57;4.80;99.90
28484;DHT22;15704;48.834;8.736;2023-02-15T17:31:29;4.70;99.90
28484;DHT22;15704;48.834;8.736;2023-02-15T17:33:59;4.70;99.90
28484;DHT22;15704;48.834;8.736;2023-02-15T17:36:30;4.70;99.90
28484;DHT22;15704;48.834;8.736;2023-02-15T17:41:25;4.70;99.90
28484;DHT22;15704;48.834;8.736;2023-02-15T17:43:51;4.70;99.90
28484;DHT22;15704;48.834;8.736;2023-02-15T17:46:18;4.60;99.90
28484;DHT22;15704;48.834;8.736;2023-02-15T17:48:53;4.60;99.90
28484;DHT22;15704;48.834;8.736;2023-02-15T17:51:20;4.60;99.90
28484;DHT22;15704;48.834;8.736;2023-02-15T17:53:48;4.60;99.90
28484;DHT22;15704;48.834;8.736;2023-02-15T17:56:34;4.60;99.90
28484;DHT22;15704;48.834;8.736;2023-02-15T17:59:01;4.50;99.90
28484;DHT22;15704;48.834;8.736;2023-02-15T18:01:34;4.50;99.90
28484;DHT22;15704;48.834;8.736;2023-02-15T18:04:20;4.40;99.90
28484;DHT22;15704;48.834;8.736;2023-02-15T18:07:09;4.40;99.90
28484;DHT22;15704;48.834;8.736;2023-02-15T18:09:54;4.50;99.90
28484;DHT22;15704;48.834;8.736;2023-02-15T18:12:39;4.40;99.90
28484;DHT22;15704;48.834;8.736;2023-02-15T18:15:07;4.40;99.90
28484;DHT22;15704;48.834;8.736;2023-02-15T18:17:41;4.40;99.90
28484;DHT22;15704;48.834;8.736;2023-02-15T18:22:44;4.50;99.90
28484;DHT22;15704;48.834;8.736;2023-02-15T18:25:16;4.50;99.90
28484;DHT22;15704;48.834;8.736;2023-02-15T18:27:43;4.50;99.90
28484;DHT22;15704;48.834;8.736;2023-02-15T18:30:15;4.40;99.90
28484;DHT22;15704;48.834;8.736;2023-02-15T18:32:42;4.40;99.90
28484;DHT22;15704;48.834;8.736;2023-02-15T18:35:16;4.30;99.90
28484;DHT22;15704;48.834;8.736;2023-02-15T18:37:43;4.30;99.90
28484;DHT22;15704;48.834;8.736;2023-02-15T18:40:19;4.30;99.90
28484;DHT22;15704;48.834;8.736;2023-02-15T18:42:46;4.30;99.90
28484;DHT22;15704;48.834;8.736;2023-02-15T18:45:25;4.30;99.90
28484;DHT22;15704;48.834;8.736;2023-02-15T18:47:53;4.40;99.90
28484;DHT22;15704;48.834;8.736;2023-02-15T18:50:22;4.40;99.90
28484;DHT22;15704;48.834;8.736;2023-02-15T18:52:50;4.40;99.90
28484;DHT22;15704;48.834;8.736;2023-02-15T18:55:24;4.30;99.90
28484;DHT22;15704;48.834;8.736;2023-02-15T18:58:00;4.40;99.90
28484;DHT22;15704;48.834;8.736;2023-02-15T19:00:30;4.40;99.90
28484;DHT22;15704;48.834;8.736;2023-02-15T19:03:04;4.40;99.90
28484;DHT22;15704;48.834;8.736;2023-02-15T19:05:40;4.40;99.90
28484;DHT22;15704;48.834;8.736;2023-02-15T19:08:23;4.40;99.90
28484;DHT22;15704;48.834;8.736;2023-02-15T19:10:50;4.40;99.90
28484;DHT22;15704;48.834;8.736;2023-02-15T19:13:17;4.40;99.90
28484;DHT22;15704;48.834;8.736;2023-02-15T19:15:43;4.30;99.90
28484;DHT22;15704;48.834;8.736;2023-02-15T19:18:10;4.40;99.90
28484;DHT22;15704;48.834;8.736;2023-02-15T19:20:39;4.40;99.90
28484;DHT22;15704;48.834;8.736;2023-02-15T19:23:13;4.40;99.90
28484;DHT22;15704;48.834;8.736;2023-02-15T19:25:41;4.40;99.90
28484;DHT22;15704;48.834;8.736;2023-02-15T19:28:15;4.50;99.90
28484;DHT22;15704;48.834;8.736;2023-02-15T19:30:42;4.50;99.90
28484;DHT22;15704;48.834;8.736;2023-02-15T19:33:18;4.50;99.90
28484;DHT22;15704;48.834;8.736;2023-02-15T19:35:50;4.60;99.90
28484;DHT22;15704;48.834;8.736;2023-02-15T19:38:21;4.70;99.90
28484;DHT22;15704;48.834;8.736;2023-02-15T19:40:49;4.70;99.90
28484;DHT22;15704;48.834;8.736;2023-02-15T19:43:20;4.60;99.90
28484;DHT22;15704;48.834;8.736;2023-02-15T19:45:52;4.60;99.90
28484;DHT22;15704;48.834;8.736;2023-02-15T19:48:19;4.60;99.90
28484;DHT22;15704;48.834;8.736;2023-02-15T19:50:46;4.70;99.90
28484;DHT22;15704;48.834;8.736;2023-02-15T19:53:22;4.60;99.90
28484;DHT22;15704;48.834;8.736;2023-02-15T19:55:49;4.70;99.90
28484;DHT22;15704;48.834;8.736;2023-02-15T19:58:17;4.60;99.90
28484;DHT22;15704;48.834;8.736;2023-02-15T20:00:49;4.60;99.90